Time;durP1;ratioP1;P1;durP2;ratioP2;P2;SDS_P1;SDS_P2;PMS_P1;PMS_P2;Temp;Humidity;BMP_temperature;BMP_pressure;BME280_temperature;BME280_humidity;BME280_pressure;Samples;Min_cycle;Max_cycle;Signal;HPM_P1;HPM_P2
2022/07/23 00:01:27;;;;;;;12.63;7.03;;;19.30;61.30;;;;;;4983501;28;20301;-87
2022/07/23 00:03:54;;;;;;;8.83;7.30;;;19.30;81.40;;;;;;4984046;28;20225;-87
2022/07/23 00:06:20;;;;;;;13.30;7.53;;;19.30;85.80;;;;;;4984310;28;21011;-87
2022/07/23 00:08:46;;;;;;;8.33;7.43;;;19.30;92.10;;;;;;4985293;28;20537;-87
2022/07/23 00:11:12;;;;;;;9.60;7.50;;;19.30;99.90;;;;;;5027535;23;20489;-85
2022/07/23 00:13:37;;;;;;;7.30;6.60;;;19.40;98.60;;;;;;5029857;28;20197;-85
2022/07/23 00:16:03;;;;;;;10.40;7.10;;;19.40;75.90;;;;;;5026740;28;20432;-85
2022/07/23 00:18:29;;;;;;;10.10;7.43;;;19.40;63.40;;;;;;5029679;28;20191;-85
2022/07/23 00:20:55;;;;;;;7.57;6.87;;;19.30;63.40;;;;;;5023569;28;20566;-85
2022/07/23 00:23:20;;;;;;;8.50;7.20;;;19.30;88.80;;;;;;5025225;28;20212;-85
2022/07/23 00:25:46;;;;;;;11.83;7.90;;;19.20;99.90;;;;;;5010705;28;20214;-85
2022/07/23 00:28:12;;;;;;;8.20;7.50;;;19.20;99.90;;;;;;5007640;28;20206;-85
2022/07/23 00:30:38;;;;;;;10.73;7.30;;;19.20;99.90;;;;;;5010669;28;20789;-85
2022/07/23 00:33:06;;;;;;;8.53;7.63;;;19.30;99.90;;;;;;5009584;28;20477;-85
2022/07/23 00:35:34;;;;;;;12.53;8.20;;;19.30;99.90;;;;;;5013129;28;20190;-85
2022/07/23 00:38:00;;;;;;;10.00;8.03;;;19.30;99.90;;;;;;5009465;28;21017;-85
2022/07/23 00:40:27;;;;;;;11.77;8.90;;;19.20;99.90;;;;;;5011818;28;20441;-85
2022/07/23 00:42:53;;;;;;;10.70;8.70;;;19.20;99.90;;;;;;5010836;28;20449;-85
2022/07/23 00:45:19;;;;;;;12.13;8.60;;;19.20;99.90;;;;;;5006635;28;20867;-85
2022/07/23 00:47:45;;;;;;;11.43;8.60;;;19.20;99.90;;;;;;5008440;28;20441;-85
2022/07/23 00:50:11;;;;;;;11.60;9.17;;;19.10;99.90;;;;;;5007753;28;20288;-84
2022/07/23 00:52:38;;;;;;;11.97;9.13;;;19.10;99.90;;;;;;5007219;28;20187;-85
2022/07/23 00:55:05;;;;;;;9.70;8.70;;;19.10;99.90;;;;;;5005165;28;20449;-85
2022/07/23 00:57:31;;;;;;;11.00;8.93;;;19.10;99.90;;;;;;5003866;28;20825;-83
2022/07/23 00:59:57;;;;;;;10.57;8.60;;;19.00;99.90;;;;;;5009631;28;20553;-85
2022/07/23 01:02:26;;;;;;;10.83;9.03;;;19.00;99.90;;;;;;5007363;28;20210;-85
2022/07/23 01:04:52;;;;;;;15.63;9.40;;;18.90;99.90;;;;;;5012302;28;21966;-85
2022/07/23 01:07:19;;;;;;;9.67;8.73;;;18.90;99.90;;;;;;5013044;28;20444;-85
2022/07/23 01:09:45;;;;;;;12.30;9.10;;;18.90;99.90;;;;;;5011689;28;20452;-86
2022/07/23 01:12:11;;;;;;;18.33;10.13;;;18.90;99.90;;;;;;5010847;28;20476;-85
2022/07/23 01:14:37;;;;;;;14.10;9.13;;;18.90;99.90;;;;;;5012769;28;20963;-84
2022/07/23 01:17:03;;;;;;;15.90;9.93;;;18.80;99.90;;;;;;5009168;28;20959;-85
2022/07/23 01:19:28;;;;;;;17.00;11.47;;;18.70;99.90;;;;;;5009367;28;20191;-85
2022/07/23 01:21:56;;;;;;;13.00;11.23;;;18.60;1.00;;;;;;5011050;28;20496;-86
2022/07/23 01:24:22;;;;;;;12.63;10.53;;;18.50;1.00;;;;;;5007566;28;20186;-85
2022/07/23 01:26:49;;;;;;;12.07;10.87;;;18.40;1.00;;;;;;5009318;28;20503;-85
2022/07/23 01:29:15;;;;;;;13.73;9.70;;;18.30;1.00;;;;;;5010570;28;20245;-86
2022/07/23 01:31:40;;;;;;;14.13;9.97;;;18.30;1.00;;;;;;5012430;28;21249;-84
2022/07/23 01:34:07;;;;;;;11.23;9.93;;;18.30;1.00;;;;;;5009430;28;20471;-86
2022/07/23 01:36:33;;;;;;;11.20;9.57;;;18.30;1.00;;;;;;5005459;28;20192;-85
2022/07/23 01:38:59;;;;;;;15.40;9.80;;;18.40;1.00;;;;;;5010726;28;20451;-85
2022/07/23 01:41:25;;;;;;;11.17;9.87;;;18.40;1.00;;;;;;5013926;28;20958;-86
2022/07/23 01:43:50;;;;;;;11.83;9.27;;;18.40;1.00;;;;;;5011496;28;20404;-85
2022/07/23 01:46:16;;;;;;;13.03;11.60;;;18.40;1.00;;;;;;5008078;28;20633;-86
2022/07/23 01:48:41;;;;;;;12.47;11.20;;;18.40;1.00;;;;;;5006778;28;20217;-85
2022/07/23 01:51:07;;;;;;;14.60;11.70;;;18.30;1.00;;;;;;5008762;28;20363;-85
2022/07/23 01:53:33;;;;;;;14.93;10.60;;;18.30;1.00;;;;;;5010390;28;20190;-85
2022/07/23 01:55:59;;;;;;;12.13;10.93;;;18.20;1.00;;;;;;5007930;28;20194;-85
2022/07/23 01:58:25;;;;;;;15.60;10.07;;;18.20;1.00;;;;;;5008222;28;20193;-85
2022/07/23 02:00:51;;;;;;;13.77;10.50;;;18.20;1.00;;;;;;5013507;28;20471;-85
2022/07/23 02:03:16;;;;;;;10.77;9.67;;;18.20;1.00;;;;;;5017075;28;20496;-85
2022/07/23 02:05:42;;;;;;;13.93;10.70;;;18.20;1.00;;;;;;5010500;28;20264;-83
2022/07/23 02:08:07;;;;;;;8.40;7.60;;;18.20;1.00;;;;;;5010906;28;20180;-85
2022/07/23 02:10:33;;;;;;;9.03;8.13;;;18.20;1.00;;;;;;5011605;28;20764;-85
2022/07/23 02:12:59;;;;;;;9.83;8.23;;;18.10;1.00;;;;;;5012895;28;20184;-85
2022/07/23 02:15:24;;;;;;;10.33;7.97;;;18.10;1.00;;;;;;5010782;28;20228;-85
2022/07/23 02:17:50;;;;;;;11.07;7.47;;;18.10;1.00;;;;;;5011686;28;20256;-86
2022/07/23 02:20:15;;;;;;;9.80;8.90;;;18.00;1.00;;;;;;5007704;28;20200;-85
2022/07/23 02:22:41;;;;;;;9.40;8.50;;;18.00;1.00;;;;;;5013459;28;20202;-85
2022/07/23 02:25:07;;;;;;;10.73;9.73;;;18.00;1.00;;;;;;5009360;28;20216;-85
2022/07/23 02:27:33;;;;;;;10.93;9.80;;;17.90;1.00;;;;;;5010213;28;20247;-85
2022/07/23 02:29:59;;;;;;;11.97;10.53;;;17.90;1.00;;;;;;5014258;28;20438;-86
2022/07/23 02:32:25;;;;;;;11.20;10.10;;;17.90;1.00;;;;;;5015611;28;20463;-86
2022/07/23 02:34:51;;;;;;;12.40;11.10;;;17.80;1.00;;;;;;5012318;28;20212;-86
2022/07/23 02:37:17;;;;;;;12.03;10.83;;;17.80;1.00;;;;;;5012573;28;20467;-85
2022/07/23 02:39:43;;;;;;;11.80;10.60;;;17.80;1.00;;;;;;5010398;28;20188;-85
2022/07/23 02:42:08;;;;;;;12.00;10.43;;;17.80;1.00;;;;;;5012588;28;20205;-83
2022/07/23 02:44:34;;;;;;;11.37;10.23;;;17.70;1.00;;;;;;5013246;28;20222;-85
2022/07/23 02:46:59;;;;;;;12.50;11.20;;;17.70;1.00;;;;;;5015159;28;20222;-85
2022/07/23 02:49:25;;;;;;;11.67;10.57;;;17.70;1.00;;;;;;5017308;28;20194;-85
2022/07/23 02:51:51;;;;;;;10.43;9.50;;;17.70;1.00;;;;;;5014132;28;20215;-85
2022/07/23 02:54:17;;;;;;;11.10;9.90;;;17.70;1.00;;;;;;5011800;28;20190;-85
2022/07/23 02:56:43;;;;;;;11.87;10.67;;;17.70;1.00;;;;;;5012920;28;20862;-84
2022/07/23 02:59:08;;;;;;;13.20;11.83;;;17.70;1.00;;;;;;5010945;28;20444;-85
2022/07/23 03:01:34;;;;;;;13.63;12.20;;;17.70;1.00;;;;;;5009735;28;20639;-85
2022/07/23 03:04:00;;;;;;;14.17;10.83;;;17.70;1.00;;;;;;5013447;28;20255;-85
2022/07/23 03:06:26;;;;;;;12.70;11.40;;;17.60;1.00;;;;;;5010930;28;20243;-86
2022/07/23 03:08:51;;;;;;;15.53;11.73;;;17.60;1.00;;;;;;5013683;28;20445;-85
2022/07/23 03:11:17;;;;;;;12.67;10.87;;;17.60;1.00;;;;;;5011785;28;20358;-85
2022/07/23 03:13:43;;;;;;;13.50;11.47;;;17.60;1.00;;;;;;5012447;28;20326;-85
2022/07/23 03:16:08;;;;;;;13.17;11.80;;;17.60;1.00;;;;;;5012791;28;20188;-84
2022/07/23 03:18:34;;;;;;;13.70;11.90;;;17.60;1.00;;;;;;5011796;28;20191;-85
2022/07/23 03:20:59;;;;;;;15.83;12.13;;;17.60;1.00;;;;;;5008615;28;20215;-85
2022/07/23 03:23:25;;;;;;;13.37;11.30;;;17.50;1.00;;;;;;5011338;28;20263;-85
2022/07/23 03:25:51;;;;;;;12.37;11.00;;;17.50;1.00;;;;;;5011121;28;20299;-85
2022/07/23 03:28:17;;;;;;;17.30;10.60;;;17.50;1.00;;;;;;5011623;28;20188;-85
2022/07/23 03:30:46;;;;;;;13.30;11.03;;;17.50;1.00;;;;;;5008456;28;20676;-84
2022/07/23 03:33:21;;;;;;;13.10;10.30;;;17.50;1.00;;;;;;5011911;28;20466;-85
2022/07/23 03:35:48;;;;;;;14.90;11.23;;;17.40;1.00;;;;;;5014958;28;20472;-85
2022/07/23 03:38:14;;;;;;;12.93;11.30;;;17.40;1.00;;;;;;5010968;28;20936;-86
2022/07/23 03:40:39;;;;;;;17.30;13.80;;;17.40;1.00;;;;;;5013112;28;21216;-85
2022/07/23 03:43:05;;;;;;;13.63;12.20;;;17.40;1.00;;;;;;5011532;28;20437;-87
2022/07/23 03:45:32;;;;;;;12.67;11.47;;;17.40;1.00;;;;;;5011058;28;20239;-85
2022/07/23 03:47:57;;;;;;;15.17;13.50;;;17.40;1.00;;;;;;5009191;28;20448;-85
2022/07/23 03:50:24;;;;;;;14.03;12.60;;;17.30;1.00;;;;;;5010795;28;20442;-85
2022/07/23 03:52:49;;;;;;;14.63;13.13;;;17.30;1.00;;;;;;5011789;28;20185;-85
2022/07/23 03:55:15;;;;;;;19.37;13.10;;;17.30;1.00;;;;;;5007292;28;20472;-85
2022/07/23 03:57:41;;;;;;;17.23;13.23;;;17.30;1.00;;;;;;5011721;28;20234;-85
2022/07/23 04:00:09;;;;;;;18.87;14.30;;;17.30;1.00;;;;;;5011976;28;20265;-85
2022/07/23 04:02:35;;;;;;;17.50;14.50;;;17.30;1.00;;;;;;5011769;28;20250;-85
2022/07/23 04:05:01;;;;;;;16.70;14.30;;;17.30;1.00;;;;;;5008641;28;20474;-85
2022/07/23 04:07:27;;;;;;;18.53;13.70;;;17.40;1.00;;;;;;5014134;28;20439;-85
2022/07/23 04:09:53;;;;;;;16.47;13.30;;;17.40;1.00;;;;;;5008243;28;20964;-85
2022/07/23 04:12:18;;;;;;;15.50;13.97;;;17.40;1.00;;;;;;5012449;28;20305;-85
2022/07/23 04:14:44;;;;;;;17.10;14.30;;;17.40;1.00;;;;;;5008902;28;20559;-85
2022/07/23 04:17:11;;;;;;;15.60;14.00;;;17.40;1.00;;;;;;5014166;28;20555;-85
2022/07/23 04:19:39;;;;;;;16.13;14.37;;;17.50;1.00;;;;;;5011644;28;20448;-86
2022/07/23 04:22:06;;;;;;;15.63;13.97;;;17.50;1.00;;;;;;5012399;28;20457;-85
2022/07/23 04:24:32;;;;;;;16.30;13.80;;;17.60;1.00;;;;;;5009864;28;20427;-85
2022/07/23 04:26:58;;;;;;;15.93;12.97;;;17.60;1.00;;;;;;5007256;28;21033;-86
2022/07/23 04:29:23;;;;;;;21.20;14.13;;;17.70;1.00;;;;;;5010302;28;20476;-85
2022/07/23 04:31:49;;;;;;;18.30;13.50;;;17.70;1.00;;;;;;5006777;28;20200;-85
2022/07/23 04:34:15;;;;;;;19.70;14.23;;;17.70;1.00;;;;;;5009507;28;20651;-86
2022/07/23 04:36:40;;;;;;;14.67;13.17;;;17.80;1.00;;;;;;5006110;28;20264;-85
2022/07/23 04:39:06;;;;;;;20.77;13.43;;;17.80;1.00;;;;;;5010774;28;20190;-85
2022/07/23 04:41:32;;;;;;;14.47;12.93;;;17.90;1.00;;;;;;5004753;28;20211;-85
2022/07/23 04:43:57;;;;;;;20.40;16.70;;;17.90;1.00;;;;;;5010435;28;20194;-85
2022/07/23 04:46:23;;;;;;;24.33;21.93;;;18.00;99.90;;;;;;5006794;28;20211;-86
2022/07/23 04:48:48;;;;;;;31.33;24.33;;;18.10;99.90;;;;;;5010239;28;20259;-85
2022/07/23 04:51:14;;;;;;;33.73;28.53;;;18.20;99.90;;;;;;5009763;28;20259;-84
2022/07/23 04:53:39;;;;;;;42.03;34.50;;;18.20;99.90;;;;;;5008736;28;20280;-86
2022/07/23 04:56:05;;;;;;;41.67;37.23;;;18.30;99.90;;;;;;5012136;28;20181;-85
2022/07/23 04:58:31;;;;;;;39.60;35.40;;;18.40;99.90;;;;;;5011758;28;20189;-85
2022/07/23 05:00:57;;;;;;;34.93;30.60;;;18.50;99.90;;;;;;5014548;28;20464;-86
2022/07/23 05:03:23;;;;;;;29.63;25.80;;;18.60;99.90;;;;;;5011180;28;20437;-85
2022/07/23 05:05:49;;;;;;;29.63;25.33;;;18.70;99.90;;;;;;5009187;28;20614;-86
2022/07/23 05:08:14;;;;;;;26.70;24.00;;;18.80;99.90;;;;;;5013409;28;20191;-85
2022/07/23 05:10:40;;;;;;;25.90;18.60;;;18.90;78.40;;;;;;5013845;28;20217;-85
2022/07/23 05:13:05;;;;;;;21.20;18.90;;;19.00;1.00;;;;;;5009344;28;20595;-85
2022/07/23 05:15:31;;;;;;;22.60;20.17;;;19.20;1.00;;;;;;5010826;28;20658;-86
2022/07/23 05:17:56;;;;;;;25.30;22.70;;;19.30;1.00;;;;;;5016498;28;20196;-85
2022/07/23 05:20:22;;;;;;;28.93;23.50;;;19.40;99.90;;;;;;5014887;28;20188;-85
2022/07/23 05:22:48;;;;;;;25.07;22.57;;;19.60;99.90;;;;;;5013795;28;20186;-85
2022/07/23 05:25:13;;;;;;;24.37;19.90;;;19.70;81.70;;;;;;5013999;28;20214;-85
2022/07/23 05:27:39;;;;;;;22.10;19.70;;;19.90;1.00;;;;;;5011909;28;20742;-85
2022/07/23 05:30:05;;;;;;;21.73;19.40;;;20.00;99.90;;;;;;5013172;28;20650;-85
2022/07/23 05:32:32;;;;;;;18.73;16.80;;;20.20;61.90;;;;;;5014555;28;20197;-86
2022/07/23 05:34:57;;;;;;;16.00;14.50;;;20.30;99.90;;;;;;5010627;28;20542;-85
2022/07/23 05:37:23;;;;;;;15.83;12.77;;;20.40;1.00;;;;;;5014076;28;20529;-85
2022/07/23 05:39:48;;;;;;;18.00;12.83;;;20.50;1.00;;;;;;5017217;28;20190;-85
2022/07/23 05:42:14;;;;;;;15.20;12.07;;;20.60;99.90;;;;;;5018132;28;20206;-85
2022/07/23 05:44:39;;;;;;;14.97;11.57;;;20.90;1.00;;;;;;5015201;28;20230;-85
2022/07/23 05:47:05;;;;;;;17.23;11.60;;;21.20;99.90;;;;;;5016215;28;20235;-85
2022/07/23 05:49:30;;;;;;;13.37;11.97;;;21.40;1.00;;;;;;5017542;28;20235;-85
2022/07/23 05:51:56;;;;;;;14.20;11.37;;;21.70;99.90;;;;;;5016713;28;20225;-85
2022/07/23 05:54:22;;;;;;;19.00;12.93;;;21.80;1.00;;;;;;5013564;28;20189;-85
2022/07/23 05:56:47;;;;;;;15.70;12.00;;;22.00;99.90;;;;;;5031661;28;20190;-86
2022/07/23 05:59:14;;;;;;;14.70;11.30;;;22.30;99.90;;;;;;5014666;28;20182;-85
2022/07/23 06:01:40;;;;;;;11.03;9.97;;;22.80;70.60;;;;;;5010777;28;20674;-86
2022/07/23 06:04:05;;;;;;;12.43;10.17;;;24.10;1.00;;;;;;5009955;28;20445;-85
2022/07/23 06:06:31;;;;;;;10.37;9.10;;;26.90;1.00;;;;;;5010858;28;20203;-85
2022/07/23 06:08:57;;;;;;;10.23;9.13;;;29.90;99.90;;;;;;5010108;28;20655;-85
2022/07/23 06:11:23;;;;;;;10.53;9.43;;;32.30;99.90;;;;;;5005515;28;20713;-86
2022/07/23 06:13:48;;;;;;;11.20;9.80;;;34.20;99.90;;;;;;5012156;28;20442;-86
2022/07/23 06:16:14;;;;;;;11.60;8.90;;;35.80;99.90;;;;;;5025505;22;20235;-86
2022/07/23 06:18:39;;;;;;;11.03;8.90;;;37.50;99.90;;;;;;4992104;28;20198;-84
2022/07/23 06:21:05;;;;;;;9.83;8.83;;;38.90;99.90;;;;;;4989539;28;20183;-84
2022/07/23 06:23:30;;;;;;;10.13;9.00;;;40.20;99.90;;;;;;4992112;28;20187;-85
2022/07/23 06:25:56;;;;;;;10.80;9.30;;;41.30;99.90;;;;;;4989421;28;20695;-86
2022/07/23 06:28:21;;;;;;;11.50;9.30;;;42.40;99.90;;;;;;4984182;28;20196;-84
2022/07/23 06:30:48;;;;;;;11.17;10.07;;;43.20;99.90;;;;;;4985039;28;20230;-86
2022/07/23 06:33:13;;;;;;;10.00;9.20;;;44.10;99.90;;;;;;4990450;28;20235;-85
2022/07/23 06:35:39;;;;;;;10.00;9.10;;;44.70;99.90;;;;;;4989460;28;20463;-87
2022/07/23 06:38:04;;;;;;;10.33;9.33;;;45.50;99.90;;;;;;4989110;28;20623;-85
2022/07/23 06:40:30;;;;;;;13.40;12.20;;;46.30;99.90;;;;;;4985855;28;20230;-86
2022/07/23 06:42:55;;;;;;;21.40;19.40;;;47.10;99.30;;;;;;4987739;28;20241;-85
2022/07/23 06:45:22;;;;;;;25.33;23.23;;;48.30;95.30;;;;;;4991031;28;20222;-84
2022/07/23 06:47:47;;;;;;;19.43;17.40;;;49.50;92.30;;;;;;4991441;28;20191;-85
2022/07/23 06:50:13;;;;;;;18.93;17.43;;;50.20;85.30;;;;;;4990680;28;20446;-85
2022/07/23 06:52:38;;;;;;;17.30;15.60;;;51.10;77.90;;;;;;4990514;28;20183;-86
2022/07/23 06:55:04;;;;;;;17.77;16.27;;;52.30;71.60;;;;;;4989572;28;20683;-85
2022/07/23 06:57:30;;;;;;;20.60;18.83;;;53.40;64.10;;;;;;4990650;28;20191;-85
2022/07/23 06:59:55;;;;;;;22.20;20.17;;;53.90;57.00;;;;;;4989771;28;20193;-86
2022/07/23 07:02:21;;;;;;;18.45;16.60;;;54.50;51.90;;;;;;4987777;28;20198;-87
2022/07/23 07:04:46;;;;;;;17.30;15.90;;;55.10;48.20;;;;;;4985971;28;20250;-86
2022/07/23 07:07:12;;;;;;;16.27;14.63;;;55.70;45.30;;;;;;4991081;28;20277;-86
2022/07/23 07:09:38;;;;;;;17.27;15.57;;;56.00;40.40;;;;;;4986121;28;20722;-86
2022/07/23 07:12:04;;;;;;;15.43;14.07;;;56.50;36.80;;;;;;4991517;28;20286;-86
2022/07/23 07:14:29;;;;;;;16.88;15.38;;;57.20;34.40;;;;;;4989606;28;20187;-88
2022/07/23 07:16:55;;;;;;;16.33;15.02;;;57.70;32.90;;;;;;4984484;28;20857;-86
2022/07/23 07:19:21;;;;;;;16.13;14.52;;;58.10;30.90;;;;;;4989226;28;20270;-86
2022/07/23 07:21:46;;;;;;;18.83;17.23;;;58.30;29.00;;;;;;4983962;28;20183;-86
2022/07/23 07:24:12;;;;;;;18.02;16.42;;;58.50;27.30;;;;;;4987904;28;20194;-86
2022/07/23 07:26:39;;;;;;;16.25;14.55;;;58.10;23.70;;;;;;4987708;28;20260;-86
2022/07/23 07:29:05;;;;;;;17.35;15.52;;;58.40;22.50;;;;;;4987786;28;20175;-86
2022/07/23 07:31:30;;;;;;;13.18;11.98;;;58.70;21.80;;;;;;4985106;28;20187;-85
2022/07/23 07:33:56;;;;;;;13.50;12.38;;;59.10;20.90;;;;;;4987319;28;20572;-88
2022/07/23 07:36:23;;;;;;;15.05;13.75;;;59.20;20.00;;;;;;4986809;28;20220;-86
2022/07/23 07:38:48;;;;;;;14.05;12.65;;;59.20;18.70;;;;;;4987186;28;20218;-86
2022/07/23 07:41:14;;;;;;;13.57;12.38;;;59.40;17.30;;;;;;4990325;28;20222;-86
2022/07/23 07:43:39;;;;;;;13.23;12.10;;;59.60;17.10;;;;;;4986495;28;20182;-87
2022/07/23 07:46:09;;;;;;;12.50;11.38;;;58.40;13.60;;;;;;4987933;28;20210;-86
2022/07/23 07:48:36;;;;;;;13.40;12.20;;;58.90;14.50;;;;;;4989342;28;20194;-86
2022/07/23 07:51:02;;;;;;;12.57;11.40;;;56.50;18.60;;;;;;4988290;28;20614;-85
2022/07/23 07:53:27;;;;;;;11.00;9.90;;;56.80;10.70;;;;;;4987861;28;20189;-86
2022/07/23 07:55:53;;;;;;;10.32;9.05;;;55.60;8.10;;;;;;4985681;28;20625;-85
2022/07/23 07:58:18;;;;;;;10.65;9.75;;;56.50;10.20;;;;;;4987118;28;20254;-87
2022/07/23 08:00:44;;;;;;;11.85;10.65;;;56.80;9.90;;;;;;5002016;28;20194;-86
2022/07/23 08:03:09;;;;;;;9.18;8.30;;;56.90;9.40;;;;;;4995923;28;20189;-86
2022/07/23 08:05:35;;;;;;;8.05;6.78;;;56.80;8.60;;;;;;4989149;28;20267;-86
2022/07/23 08:08:00;;;;;;;6.40;5.80;;;57.00;8.50;;;;;;4986756;28;20206;-88
2022/07/23 08:10:28;;;;;;;7.57;6.35;;;57.30;8.20;;;;;;4988056;28;20179;-86
2022/07/23 08:12:56;;;;;;;8.00;7.20;;;55.40;4.30;;;;;;4983834;28;20226;-87
2022/07/23 08:15:22;;;;;;;10.33;9.30;;;53.10;1.00;;;;;;4988557;28;20228;-87
2022/07/23 08:17:49;;;;;;;9.57;8.67;;;51.10;1.00;;;;;;4988385;28;20446;-85
2022/07/23 08:20:18;;;;;;;8.87;7.97;;;52.00;2.30;;;;;;4987859;28;20437;-85
2022/07/23 08:22:54;;;;;;;8.70;6.90;;;53.00;4.20;;;;;;4980627;28;20179;-85
2022/07/23 08:25:23;;;;;;;8.17;7.30;;;53.70;5.20;;;;;;4999091;28;20189;-83
2022/07/23 08:27:49;;;;;;;7.70;6.90;;;54.40;6.10;;;;;;4980439;28;20190;-84
2022/07/23 08:30:16;;;;;;;7.90;7.10;;;54.80;5.80;;;;;;4981719;28;20765;-85
2022/07/23 08:32:55;;;;;;;7.90;7.03;;;55.00;6.10;;;;;;4985948;28;20210;-84
2022/07/23 08:35:28;;;;;;;7.50;6.80;;;55.30;6.30;;;;;;4986978;28;20225;-86
2022/07/23 08:37:55;;;;;;;6.60;5.97;;;55.40;6.00;;;;;;4981477;28;20197;-86
2022/07/23 08:40:21;;;;;;;10.93;6.38;;;55.10;4.50;;;;;;4980499;28;20659;-85
2022/07/23 08:42:49;;;;;;;9.80;5.88;;;55.20;4.00;;;;;;4983628;28;20237;-88
2022/07/23 08:45:20;;;;;;;7.13;5.90;;;55.20;3.30;;;;;;4990042;28;20183;-85
2022/07/23 08:47:49;;;;;;;6.67;6.00;;;55.30;3.10;;;;;;4982410;28;20592;-85
2022/07/23 08:50:14;;;;;;;7.43;5.35;;;55.50;2.60;;;;;;4986266;28;20183;-85
2022/07/23 08:52:40;;;;;;;6.93;6.32;;;55.70;2.60;;;;;;4984343;28;20249;-87
2022/07/23 08:55:07;;;;;;;7.07;6.47;;;55.40;1.40;;;;;;4985525;28;20191;-86
2022/07/23 08:57:33;;;;;;;6.10;5.50;;;55.10;1.00;;;;;;4985312;28;20298;-86
2022/07/23 08:59:59;;;;;;;6.07;5.47;;;55.00;10.00;;;;;;4984622;28;20258;-86
2022/07/23 09:02:24;;;;;;;5.90;5.40;;;55.20;1.00;;;;;;4987702;28;20183;-85
2022/07/23 09:04:50;;;;;;;7.00;6.23;;;54.90;1.00;;;;;;5001641;28;20659;-86
2022/07/23 09:07:15;;;;;;;6.40;5.80;;;54.60;1.00;;;;;;4982836;28;20209;-85
2022/07/23 09:09:41;;;;;;;6.97;6.23;;;54.00;1.00;;;;;;4988919;28;20214;-85
2022/07/23 09:12:08;;;;;;;7.00;6.30;;;53.50;1.00;;;;;;4985165;28;20182;-88
2022/07/23 09:14:43;;;;;;;5.70;5.17;;;53.20;1.00;;;;;;4991336;28;20233;-86
2022/07/23 09:17:10;;;;;;;6.30;5.60;;;53.40;1.00;;;;;;4985332;28;20289;-85
2022/07/23 09:19:36;;;;;;;6.33;5.77;;;53.40;1.00;;;;;;4989147;28;20558;-85
2022/07/23 09:22:26;;;;;;;5.37;4.80;;;53.40;1.00;;;;;;4989213;28;20449;-85
2022/07/23 09:25:10;;;;;;;6.80;6.20;;;53.50;1.00;;;;;;4990097;28;20270;-84
2022/07/23 09:27:47;;;;;;;8.53;6.17;;;53.50;1.00;;;;;;4991096;28;20281;-85
2022/07/23 09:30:13;;;;;;;4.80;4.40;;;53.50;1.00;;;;;;4990768;28;20207;-86
2022/07/23 09:32:39;;;;;;;7.60;5.80;;;53.30;1.00;;;;;;4991775;28;20465;-86
2022/07/23 09:35:05;;;;;;;6.97;5.20;;;52.70;1.00;;;;;;4991200;28;20187;-86
2022/07/23 09:37:31;;;;;;;5.60;5.00;;;52.50;1.00;;;;;;4988553;28;20456;-85
2022/07/23 09:40:05;;;;;;;4.80;4.30;;;52.60;1.00;;;;;;4994408;28;20437;-86
2022/07/23 09:42:30;;;;;;;5.10;4.47;;;52.60;1.00;;;;;;4990527;28;20241;-86
2022/07/23 09:44:57;;;;;;;4.73;4.30;;;52.70;1.00;;;;;;5001863;28;20435;-86
2022/07/23 09:47:27;;;;;;;5.97;4.07;;;52.90;1.00;;;;;;4987301;28;20212;-89
2022/07/23 09:50:12;;;;;;;7.00;5.27;;;53.00;1.00;;;;;;4994164;28;20433;-86
2022/07/23 09:52:43;;;;;;;5.97;4.70;;;52.70;1.00;;;;;;4985445;28;20433;-86
2022/07/23 09:55:09;;;;;;;4.90;4.37;;;52.40;1.00;;;;;;4990423;28;20430;-85
2022/07/23 09:57:35;;;;;;;6.10;5.17;;;52.30;1.00;;;;;;4990597;28;20468;-85
2022/07/23 10:00:04;;;;;;;5.07;4.50;;;51.90;1.00;;;;;;4983753;28;20276;-87
2022/07/23 10:02:32;;;;;;;4.20;3.80;;;51.70;1.00;;;;;;4985115;28;20233;-85
2022/07/23 10:05:00;;;;;;;4.90;4.50;;;51.60;1.00;;;;;;4986251;28;20533;-84
2022/07/23 10:07:29;;;;;;;4.20;3.80;;;51.40;1.00;;;;;;4988075;28;20457;-83
2022/07/23 10:09:56;;;;;;;4.30;3.97;;;51.30;1.00;;;;;;4989852;28;20466;-87
2022/07/23 10:14:56;;;;;;;4.30;3.50;;;50.70;1.00;;;;;;4989695;28;20524;-85
2022/07/23 10:17:23;;;;;;;4.63;4.23;;;50.50;1.00;;;;;;4990189;28;20469;-85
2022/07/23 10:19:48;;;;;;;7.60;4.83;;;50.40;1.00;;;;;;4990241;28;20430;-85
2022/07/23 10:22:36;;;;;;;4.60;4.17;;;50.20;1.00;;;;;;4992978;28;20488;-88
2022/07/23 10:25:29;;;;;;;7.87;4.03;;;49.60;1.00;;;;;;5000733;28;20175;-87
2022/07/23 10:28:10;;;;;;;5.03;2.83;;;49.30;1.00;;;;;;4980670;28;20978;-85
2022/07/23 10:30:56;;;;;;;4.73;3.00;;;49.30;1.00;;;;;;4998073;28;20435;-85
2022/07/23 10:33:46;;;;;;;4.37;4.00;;;49.60;1.00;;;;;;4988250;28;20429;-83
2022/07/23 10:36:39;;;;;;;4.83;4.43;;;49.60;1.00;;;;;;4992738;28;21003;-84
2022/07/23 10:39:28;;;;;;;5.43;3.30;;;49.50;1.00;;;;;;4990887;28;20430;-85
2022/07/23 10:42:14;;;;;;;3.27;2.60;;;49.50;1.00;;;;;;4990242;28;20464;-86
2022/07/23 10:44:45;;;;;;;5.37;3.00;;;49.40;1.00;;;;;;4990553;28;20511;-85
2022/07/23 10:50:31;;;;;;;4.70;3.80;;;49.50;1.00;;;;;;4993477;28;20426;-86
2022/07/23 10:53:06;;;;;;;4.00;3.27;;;49.30;1.00;;;;;;4976591;28;20473;-85
2022/07/23 10:55:31;;;;;;;3.87;3.00;;;48.50;1.00;;;;;;4989251;28;20793;-84
2022/07/23 10:57:58;;;;;;;2.93;2.60;;;48.40;1.00;;;;;;4989253;28;20485;-85
2022/07/23 11:00:28;;;;;;;2.67;2.30;;;48.40;1.00;;;;;;4980878;28;20175;-85
2022/07/23 11:03:25;;;;;;;2.90;1.97;;;48.30;1.00;;;;;;4989456;28;20485;-86
2022/07/23 11:05:50;;;;;;;3.13;2.20;;;48.10;1.00;;;;;;4987764;28;20479;-86
2022/07/23 11:08:20;;;;;;;2.23;1.90;;;48.10;1.00;;;;;;4988013;28;20521;-85
2022/07/23 11:10:51;;;;;;;3.30;2.20;;;48.20;1.00;;;;;;4984169;28;20183;-87
2022/07/23 11:13:26;;;;;;;2.90;1.80;;;47.80;1.00;;;;;;4984143;28;20441;-85
2022/07/23 11:16:05;;;;;;;1.83;1.50;;;47.90;1.00;;;;;;4987970;28;21035;-85
2022/07/23 11:18:40;;;;;;;3.20;1.90;;;47.70;1.00;;;;;;4985497;28;20434;-85
2022/07/23 11:21:27;;;;;;;3.63;2.30;;;47.70;1.00;;;;;;4998288;28;20425;-86
2022/07/23 11:24:07;;;;;;;3.20;1.90;;;47.70;1.00;;;;;;4986111;28;20430;-86
2022/07/23 11:26:54;;;;;;;2.30;1.77;;;47.70;1.00;;;;;;4994687;28;20474;-86
2022/07/23 11:29:25;;;;;;;4.03;2.30;;;47.60;1.00;;;;;;4985705;28;20476;-86
2022/07/23 11:32:04;;;;;;;3.30;1.93;;;47.60;1.00;;;;;;5000937;28;20960;-86
2022/07/23 11:34:46;;;;;;;2.80;1.80;;;47.40;1.00;;;;;;4985334;28;20439;-86
2022/07/23 11:37:31;;;;;;;3.73;1.93;;;47.40;1.00;;;;;;4985627;28;20528;-86
2022/07/23 11:39:58;;;;;;;2.03;1.83;;;47.40;1.00;;;;;;4988015;28;20449;-88
2022/07/23 11:42:24;;;;;;;1.33;1.20;;;47.10;1.00;;;;;;4987651;28;20962;-86
2022/07/23 11:44:50;;;;;;;2.70;1.63;;;46.90;1.00;;;;;;4988263;28;20461;-87
2022/07/23 11:47:22;;;;;;;1.50;1.30;;;46.50;1.00;;;;;;4986916;28;20290;-86
2022/07/23 11:50:07;;;;;;;2.80;1.53;;;46.10;1.00;;;;;;4996372;28;20430;-86
2022/07/23 11:52:32;;;;;;;2.27;1.50;;;45.90;1.00;;;;;;4984707;28;20441;-86
2022/07/23 11:55:02;;;;;;;4.27;1.63;;;45.90;1.00;;;;;;4984820;28;20431;-86
2022/07/23 11:57:31;;;;;;;2.90;1.87;;;46.00;1.00;;;;;;4989551;28;20691;-85
2022/07/23 12:00:11;;;;;;;3.00;1.80;;;46.00;1.00;;;;;;4987975;28;20434;-88
2022/07/23 12:02:38;;;;;;;3.73;2.07;;;46.10;1.00;;;;;;4987152;28;20442;-88
2022/07/23 12:05:05;;;;;;;2.00;1.70;;;46.20;1.00;;;;;;4984357;28;20462;-85
2022/07/23 12:07:30;;;;;;;3.07;1.70;;;46.20;1.00;;;;;;4985341;28;20879;-86
2022/07/23 12:09:58;;;;;;;2.80;1.97;;;45.80;1.00;;;;;;4983634;28;20534;-85
2022/07/23 12:12:24;;;;;;;2.10;1.70;;;45.70;1.00;;;;;;4985418;28;20180;-87
2022/07/23 12:14:56;;;;;;;2.40;1.70;;;45.60;1.00;;;;;;4986371;28;20454;-86
2022/07/23 12:17:28;;;;;;;2.10;1.83;;;45.40;1.00;;;;;;4985241;28;20311;-85
2022/07/23 12:19:55;;;;;;;2.40;1.80;;;45.30;1.00;;;;;;4979895;28;20435;-85
2022/07/23 12:22:22;;;;;;;2.03;1.83;;;45.20;1.00;;;;;;4977913;28;20524;-85
2022/07/23 12:25:04;;;;;;;5.10;1.80;;;45.20;1.00;;;;;;4981786;28;20434;-85
2022/07/23 12:27:29;;;;;;;1.73;1.60;;;45.30;1.00;;;;;;4993786;28;20469;-85
2022/07/23 12:29:55;;;;;;;3.00;2.13;;;45.20;1.00;;;;;;4987291;28;20449;-85
2022/07/23 12:32:27;;;;;;;3.47;1.97;;;45.10;1.00;;;;;;4985388;28;20191;-85
2022/07/23 12:35:07;;;;;;;3.17;2.00;;;43.90;1.00;;;;;;4984294;28;20683;-85
2022/07/23 12:37:38;;;;;;;3.77;2.10;;;43.60;1.00;;;;;;4988628;28;20570;-85
2022/07/23 12:40:26;;;;;;;2.80;2.00;;;42.40;1.00;;;;;;4983131;28;20474;-85
2022/07/23 12:42:54;;;;;;;4.20;2.30;;;41.00;1.00;;;;;;4997209;28;20445;-87
2022/07/23 12:45:20;;;;;;;3.43;2.00;;;40.00;1.00;;;;;;4985270;28;20803;-87
2022/07/23 12:48:06;;;;;;;1.87;1.77;;;40.20;1.00;;;;;;4981542;28;21353;-85
2022/07/23 12:50:37;;;;;;;2.50;2.30;;;40.20;1.00;;;;;;4979912;28;20438;-87
2022/07/23 12:53:04;;;;;;;4.37;2.10;;;39.90;1.00;;;;;;4981199;28;20473;-87